sensor_id;sensor_type;location;lat;lon;timestamp;P1;durP1;ratioP1;P2;durP2;ratioP2
40204;SDS011;26963;42.666;23.366;2023-05-27T00:02:05;17.27;;;10.82;;
40204;SDS011;26963;42.666;23.366;2023-05-27T00:04:31;13.45;;;11.90;;
40204;SDS011;26963;42.666;23.366;2023-05-27T00:06:56;16.80;;;12.30;;
40204;SDS011;26963;42.666;23.366;2023-05-27T00:09:22;13.70;;;12.23;;
40204;SDS011;26963;42.666;23.366;2023-05-27T00:11:47;9.40;;;8.48;;
40204;SDS011;26963;42.666;23.366;2023-05-27T00:14:13;8.20;;;7.15;;
40204;SDS011;26963;42.666;23.366;2023-05-27T00:16:38;8.30;;;7.28;;
40204;SDS011;26963;42.666;23.366;2023-05-27T00:19:04;7.15;;;5.70;;
40204;SDS011;26963;42.666;23.366;2023-05-27T00:21:30;6.22;;;4.20;;
40204;SDS011;26963;42.666;23.366;2023-05-27T00:23:55;6.78;;;3.83;;
40204;SDS011;26963;42.666;23.366;2023-05-27T00:26:23;5.72;;;3.72;;
40204;SDS011;26963;42.666;23.366;2023-05-27T00:28:48;5.47;;;3.75;;
40204;SDS011;26963;42.666;23.366;2023-05-27T00:31:14;6.85;;;3.83;;
40204;SDS011;26963;42.666;23.366;2023-05-27T00:33:40;4.72;;;3.67;;
40204;SDS011;26963;42.666;23.366;2023-05-27T00:36:05;8.40;;;3.80;;
40204;SDS011;26963;42.666;23.366;2023-05-27T00:38:33;6.40;;;5.40;;
40204;SDS011;26963;42.666;23.366;2023-05-27T00:41:00;6.95;;;5.70;;
40204;SDS011;26963;42.666;23.366;2023-05-27T00:43:28;8.48;;;5.93;;
40204;SDS011;26963;42.666;23.366;2023-05-27T00:45:56;9.80;;;6.40;;
40204;SDS011;26963;42.666;23.366;2023-05-27T00:48:21;8.43;;;5.63;;
40204;SDS011;26963;42.666;23.366;2023-05-27T00:50:47;8.20;;;5.72;;
40204;SDS011;26963;42.666;23.366;2023-05-27T00:53:13;6.60;;;5.60;;
40204;SDS011;26963;42.666;23.366;2023-05-27T00:55:40;6.88;;;5.20;;
40204;SDS011;26963;42.666;23.366;2023-05-27T00:58:06;7.53;;;5.70;;
40204;SDS011;26963;42.666;23.366;2023-05-27T01:00:34;8.52;;;5.15;;
40204;SDS011;26963;42.666;23.366;2023-05-27T01:03:02;5.88;;;4.82;;
40204;SDS011;26963;42.666;23.366;2023-05-27T01:05:28;6.10;;;4.38;;
40204;SDS011;26963;42.666;23.366;2023-05-27T01:10:26;5.13;;;3.20;;
40204;SDS011;26963;42.666;23.366;2023-05-27T01:15:32;4.20;;;3.50;;
40204;SDS011;26963;42.666;23.366;2023-05-27T01:17:59;5.82;;;3.50;;
40204;SDS011;26963;42.666;23.366;2023-05-27T01:20:28;5.30;;;3.60;;
40204;SDS011;26963;42.666;23.366;2023-05-27T01:22:54;4.07;;;3.33;;
40204;SDS011;26963;42.666;23.366;2023-05-27T01:25:22;5.80;;;4.18;;
40204;SDS011;26963;42.666;23.366;2023-05-27T01:27:49;4.65;;;3.70;;
40204;SDS011;26963;42.666;23.366;2023-05-27T01:30:15;5.80;;;3.60;;
40204;SDS011;26963;42.666;23.366;2023-05-27T01:35:51;5.90;;;4.38;;
40204;SDS011;26963;42.666;23.366;2023-05-27T01:38:20;4.97;;;3.78;;
40204;SDS011;26963;42.666;23.366;2023-05-27T01:40:49;4.80;;;3.88;;
40204;SDS011;26963;42.666;23.366;2023-05-27T01:43:15;5.22;;;3.85;;
40204;SDS011;26963;42.666;23.366;2023-05-27T01:45:43;5.75;;;4.03;;
40204;SDS011;26963;42.666;23.366;2023-05-27T01:48:09;4.82;;;4.00;;
40204;SDS011;26963;42.666;23.366;2023-05-27T01:50:35;4.82;;;3.60;;
40204;SDS011;26963;42.666;23.366;2023-05-27T01:53:01;4.18;;;3.53;;
40204;SDS011;26963;42.666;23.366;2023-05-27T01:55:28;4.20;;;3.60;;
40204;SDS011;26963;42.666;23.366;2023-05-27T01:57:55;5.93;;;3.70;;
40204;SDS011;26963;42.666;23.366;2023-05-27T02:00:20;5.45;;;3.38;;
40204;SDS011;26963;42.666;23.366;2023-05-27T02:02:46;4.78;;;3.70;;
40204;SDS011;26963;42.666;23.366;2023-05-27T02:05:12;3.90;;;3.15;;
40204;SDS011;26963;42.666;23.366;2023-05-27T02:07:37;4.97;;;3.38;;
40204;SDS011;26963;42.666;23.366;2023-05-27T02:10:03;5.35;;;3.70;;
40204;SDS011;26963;42.666;23.366;2023-05-27T02:12:30;4.13;;;3.38;;
40204;SDS011;26963;42.666;23.366;2023-05-27T02:14:55;5.93;;;3.72;;
40204;SDS011;26963;42.666;23.366;2023-05-27T02:17:21;4.70;;;3.65;;
40204;SDS011;26963;42.666;23.366;2023-05-27T02:19:49;4.70;;;3.67;;
40204;SDS011;26963;42.666;23.366;2023-05-27T02:22:15;5.00;;;3.65;;
40204;SDS011;26963;42.666;23.366;2023-05-27T02:24:42;7.68;;;3.83;;
40204;SDS011;26963;42.666;23.366;2023-05-27T02:27:07;4.72;;;3.83;;
40204;SDS011;26963;42.666;23.366;2023-05-27T02:29:33;4.47;;;3.60;;
40204;SDS011;26963;42.666;23.366;2023-05-27T02:31:58;5.22;;;4.00;;
40204;SDS011;26963;42.666;23.366;2023-05-27T02:34:24;5.75;;;4.00;;
40204;SDS011;26963;42.666;23.366;2023-05-27T02:36:50;4.38;;;3.67;;
40204;SDS011;26963;42.666;23.366;2023-05-27T02:39:16;6.50;;;3.90;;
40204;SDS011;26963;42.666;23.366;2023-05-27T02:41:41;6.60;;;3.97;;
40204;SDS011;26963;42.666;23.366;2023-05-27T02:44:07;5.38;;;3.60;;
40204;SDS011;26963;42.666;23.366;2023-05-27T02:46:32;4.72;;;3.53;;
40204;SDS011;26963;42.666;23.366;2023-05-27T02:48:58;4.43;;;3.80;;
40204;SDS011;26963;42.666;23.366;2023-05-27T02:51:23;4.50;;;3.58;;
40204;SDS011;26963;42.666;23.366;2023-05-27T02:53:49;4.10;;;3.65;;
40204;SDS011;26963;42.666;23.366;2023-05-27T02:56:15;5.43;;;3.90;;
40204;SDS011;26963;42.666;23.366;2023-05-27T02:58:41;6.93;;;3.47;;
40204;SDS011;26963;42.666;23.366;2023-05-27T03:01:06;4.95;;;3.58;;
40204;SDS011;26963;42.666;23.366;2023-05-27T03:03:32;4.05;;;3.45;;
40204;SDS011;26963;42.666;23.366;2023-05-27T03:05:57;4.70;;;3.80;;
40204;SDS011;26963;42.666;23.366;2023-05-27T03:08:23;5.25;;;3.83;;
40204;SDS011;26963;42.666;23.366;2023-05-27T03:10:48;5.05;;;3.35;;
40204;SDS011;26963;42.666;23.366;2023-05-27T03:13:14;5.07;;;4.00;;
40204;SDS011;26963;42.666;23.366;2023-05-27T03:15:39;6.03;;;3.78;;
40204;SDS011;26963;42.666;23.366;2023-05-27T03:18:05;6.80;;;4.10;;
40204;SDS011;26963;42.666;23.366;2023-05-27T03:20:30;4.60;;;4.00;;
40204;SDS011;26963;42.666;23.366;2023-05-27T03:22:56;8.27;;;4.95;;
40204;SDS011;26963;42.666;23.366;2023-05-27T03:25:22;6.18;;;4.72;;
40204;SDS011;26963;42.666;23.366;2023-05-27T03:27:48;6.75;;;5.00;;
40204;SDS011;26963;42.666;23.366;2023-05-27T03:30:13;8.52;;;5.38;;
40204;SDS011;26963;42.666;23.366;2023-05-27T03:32:39;5.60;;;4.40;;
40204;SDS011;26963;42.666;23.366;2023-05-27T03:35:05;5.85;;;4.15;;
40204;SDS011;26963;42.666;23.366;2023-05-27T03:37:31;8.35;;;4.00;;
40204;SDS011;26963;42.666;23.366;2023-05-27T03:39:57;5.97;;;3.90;;
40204;SDS011;26963;42.666;23.366;2023-05-27T03:42:23;5.93;;;4.32;;
40204;SDS011;26963;42.666;23.366;2023-05-27T03:44:48;8.23;;;5.35;;
40204;SDS011;26963;42.666;23.366;2023-05-27T03:47:14;7.32;;;4.78;;
40204;SDS011;26963;42.666;23.366;2023-05-27T03:49:42;5.78;;;4.22;;
40204;SDS011;26963;42.666;23.366;2023-05-27T03:52:08;5.88;;;4.05;;
40204;SDS011;26963;42.666;23.366;2023-05-27T03:54:33;5.75;;;4.53;;
40204;SDS011;26963;42.666;23.366;2023-05-27T03:56:59;5.90;;;4.65;;
40204;SDS011;26963;42.666;23.366;2023-05-27T03:59:25;7.28;;;5.07;;
40204;SDS011;26963;42.666;23.366;2023-05-27T04:01:50;10.63;;;7.03;;
40204;SDS011;26963;42.666;23.366;2023-05-27T04:04:16;12.00;;;9.52;;
40204;SDS011;26963;42.666;23.366;2023-05-27T04:06:41;11.43;;;10.23;;
40204;SDS011;26963;42.666;23.366;2023-05-27T04:09:07;10.23;;;8.48;;
40204;SDS011;26963;42.666;23.366;2023-05-27T04:11:32;9.65;;;8.50;;
40204;SDS011;26963;42.666;23.366;2023-05-27T04:13:58;11.32;;;10.13;;
40204;SDS011;26963;42.666;23.366;2023-05-27T04:16:24;12.77;;;9.52;;
40204;SDS011;26963;42.666;23.366;2023-05-27T04:21:21;10.88;;;9.13;;
40204;SDS011;26963;42.666;23.366;2023-05-27T04:23:47;9.40;;;8.02;;
40204;SDS011;26963;42.666;23.366;2023-05-27T04:26:13;8.55;;;7.50;;
40204;SDS011;26963;42.666;23.366;2023-05-27T04:28:39;9.52;;;7.38;;
40204;SDS011;26963;42.666;23.366;2023-05-27T04:31:06;8.63;;;7.70;;
40204;SDS011;26963;42.666;23.366;2023-05-27T04:33:39;9.00;;;7.80;;
40204;SDS011;26963;42.666;23.366;2023-05-27T04:36:06;9.98;;;7.40;;
40204;SDS011;26963;42.666;23.366;2023-05-27T04:38:32;13.73;;;8.18;;
40204;SDS011;26963;42.666;23.366;2023-05-27T04:40:58;8.63;;;7.35;;
40204;SDS011;26963;42.666;23.366;2023-05-27T04:43:24;10.70;;;7.75;;
40204;SDS011;26963;42.666;23.366;2023-05-27T04:45:54;9.27;;;7.10;;
40204;SDS011;26963;42.666;23.366;2023-05-27T04:48:21;9.10;;;7.90;;
40204;SDS011;26963;42.666;23.366;2023-05-27T04:50:49;10.18;;;7.72;;
40204;SDS011;26963;42.666;23.366;2023-05-27T04:53:18;10.38;;;8.93;;
40204;SDS011;26963;42.666;23.366;2023-05-27T04:55:44;16.98;;;8.32;;
40204;SDS011;26963;42.666;23.366;2023-05-27T04:58:10;9.93;;;7.82;;
40204;SDS011;26963;42.666;23.366;2023-05-27T05:00:36;9.38;;;7.00;;
40204;SDS011;26963;42.666;23.366;2023-05-27T05:03:04;7.85;;;6.80;;
40204;SDS011;26963;42.666;23.366;2023-05-27T05:05:32;8.23;;;6.22;;
40204;SDS011;26963;42.666;23.366;2023-05-27T05:07:57;7.38;;;6.20;;
40204;SDS011;26963;42.666;23.366;2023-05-27T05:10:23;9.10;;;6.35;;
40204;SDS011;26963;42.666;23.366;2023-05-27T05:12:49;7.22;;;6.20;;
40204;SDS011;26963;42.666;23.366;2023-05-27T05:15:14;8.40;;;6.45;;
40204;SDS011;26963;42.666;23.366;2023-05-27T05:17:40;8.88;;;6.20;;
40204;SDS011;26963;42.666;23.366;2023-05-27T05:20:05;9.82;;;7.90;;
40204;SDS011;26963;42.666;23.366;2023-05-27T05:22:31;12.85;;;6.85;;
40204;SDS011;26963;42.666;23.366;2023-05-27T05:24:57;11.35;;;9.88;;
40204;SDS011;26963;42.666;23.366;2023-05-27T05:27:23;7.95;;;6.70;;
40204;SDS011;26963;42.666;23.366;2023-05-27T05:29:50;8.60;;;6.45;;
40204;SDS011;26963;42.666;23.366;2023-05-27T05:32:15;7.47;;;5.18;;
40204;SDS011;26963;42.666;23.366;2023-05-27T05:34:41;6.68;;;5.05;;
40204;SDS011;26963;42.666;23.366;2023-05-27T05:37:06;6.97;;;5.00;;
40204;SDS011;26963;42.666;23.366;2023-05-27T05:39:32;6.95;;;4.82;;
40204;SDS011;26963;42.666;23.366;2023-05-27T05:41:58;7.00;;;4.10;;
40204;SDS011;26963;42.666;23.366;2023-05-27T05:44:24;5.35;;;4.25;;
40204;SDS011;26963;42.666;23.366;2023-05-27T05:46:51;5.88;;;4.70;;
40204;SDS011;26963;42.666;23.366;2023-05-27T05:49:17;9.77;;;7.45;;
40204;SDS011;26963;42.666;23.366;2023-05-27T05:51:43;7.32;;;5.28;;
40204;SDS011;26963;42.666;23.366;2023-05-27T05:54:09;7.03;;;4.95;;
40204;SDS011;26963;42.666;23.366;2023-05-27T05:56:34;6.68;;;4.47;;
40204;SDS011;26963;42.666;23.366;2023-05-27T05:59:00;5.28;;;4.13;;
40204;SDS011;26963;42.666;23.366;2023-05-27T06:01:26;10.27;;;4.80;;
40204;SDS011;26963;42.666;23.366;2023-05-27T06:03:52;6.45;;;4.90;;
40204;SDS011;26963;42.666;23.366;2023-05-27T06:06:18;8.45;;;4.70;;
40204;SDS011;26963;42.666;23.366;2023-05-27T06:08:44;9.05;;;5.40;;
40204;SDS011;26963;42.666;23.366;2023-05-27T06:11:10;8.05;;;5.38;;
40204;SDS011;26963;42.666;23.366;2023-05-27T06:13:36;8.15;;;5.30;;
40204;SDS011;26963;42.666;23.366;2023-05-27T06:16:02;6.10;;;4.95;;
40204;SDS011;26963;42.666;23.366;2023-05-27T06:18:28;7.40;;;5.55;;
40204;SDS011;26963;42.666;23.366;2023-05-27T06:20:53;11.90;;;6.10;;
40204;SDS011;26963;42.666;23.366;2023-05-27T06:23:19;8.45;;;5.65;;
40204;SDS011;26963;42.666;23.366;2023-05-27T06:25:51;8.38;;;6.07;;
40204;SDS011;26963;42.666;23.366;2023-05-27T06:28:16;10.93;;;6.15;;
40204;SDS011;26963;42.666;23.366;2023-05-27T06:30:42;10.32;;;7.05;;
40204;SDS011;26963;42.666;23.366;2023-05-27T06:33:08;8.68;;;7.78;;
40204;SDS011;26963;42.666;23.366;2023-05-27T06:35:33;7.78;;;6.25;;
40204;SDS011;26963;42.666;23.366;2023-05-27T06:37:59;9.60;;;6.20;;
40204;SDS011;26963;42.666;23.366;2023-05-27T06:40:24;11.00;;;5.95;;
40204;SDS011;26963;42.666;23.366;2023-05-27T06:42:50;7.70;;;6.10;;
40204;SDS011;26963;42.666;23.366;2023-05-27T06:45:16;11.02;;;6.40;;
40204;SDS011;26963;42.666;23.366;2023-05-27T06:47:41;10.27;;;6.05;;
40204;SDS011;26963;42.666;23.366;2023-05-27T06:50:07;9.63;;;6.30;;
40204;SDS011;26963;42.666;23.366;2023-05-27T06:52:33;13.50;;;6.82;;
40204;SDS011;26963;42.666;23.366;2023-05-27T06:54:58;8.70;;;6.28;;
40204;SDS011;26963;42.666;23.366;2023-05-27T06:57:24;8.90;;;6.78;;
40204;SDS011;26963;42.666;23.366;2023-05-27T06:59:49;10.52;;;7.00;;
40204;SDS011;26963;42.666;23.366;2023-05-27T07:02:15;10.57;;;6.68;;
40204;SDS011;26963;42.666;23.366;2023-05-27T07:04:40;11.65;;;6.25;;
40204;SDS011;26963;42.666;23.366;2023-05-27T07:07:06;11.75;;;6.90;;
40204;SDS011;26963;42.666;23.366;2023-05-27T07:09:32;11.68;;;6.88;;
40204;SDS011;26963;42.666;23.366;2023-05-27T07:11:57;10.50;;;6.90;;
40204;SDS011;26963;42.666;23.366;2023-05-27T07:14:23;11.02;;;8.45;;
40204;SDS011;26963;42.666;23.366;2023-05-27T07:16:48;12.13;;;7.88;;
40204;SDS011;26963;42.666;23.366;2023-05-27T07:19:14;13.45;;;7.90;;
40204;SDS011;26963;42.666;23.366;2023-05-27T07:21:40;15.95;;;12.60;;
40204;SDS011;26963;42.666;23.366;2023-05-27T07:24:05;12.93;;;8.57;;
40204;SDS011;26963;42.666;23.366;2023-05-27T07:26:31;11.65;;;9.02;;
40204;SDS011;26963;42.666;23.366;2023-05-27T07:28:59;11.15;;;7.63;;
40204;SDS011;26963;42.666;23.366;2023-05-27T07:31:26;13.13;;;9.35;;
40204;SDS011;26963;42.666;23.366;2023-05-27T07:33:53;12.00;;;9.82;;
40204;SDS011;26963;42.666;23.366;2023-05-27T07:36:18;17.77;;;11.82;;
40204;SDS011;26963;42.666;23.366;2023-05-27T07:38:45;16.77;;;11.98;;
40204;SDS011;26963;42.666;23.366;2023-05-27T07:41:12;14.70;;;10.38;;
40204;SDS011;26963;42.666;23.366;2023-05-27T07:43:37;13.75;;;10.13;;
40204;SDS011;26963;42.666;23.366;2023-05-27T07:46:03;14.13;;;10.77;;
40204;SDS011;26963;42.666;23.366;2023-05-27T07:48:29;14.85;;;10.65;;
40204;SDS011;26963;42.666;23.366;2023-05-27T07:50:54;12.15;;;9.40;;
40204;SDS011;26963;42.666;23.366;2023-05-27T07:53:20;10.60;;;7.15;;
40204;SDS011;26963;42.666;23.366;2023-05-27T07:55:46;11.25;;;7.40;;
40204;SDS011;26963;42.666;23.366;2023-05-27T07:58:13;10.45;;;6.50;;
40204;SDS011;26963;42.666;23.366;2023-05-27T08:00:38;7.72;;;5.80;;
40204;SDS011;26963;42.666;23.366;2023-05-27T08:03:13;11.07;;;6.97;;
40204;SDS011;26963;42.666;23.366;2023-05-27T08:05:41;16.90;;;5.90;;
40204;SDS011;26963;42.666;23.366;2023-05-27T08:08:07;10.07;;;6.30;;
40204;SDS011;26963;42.666;23.366;2023-05-27T08:10:32;13.45;;;6.13;;
40204;SDS011;26963;42.666;23.366;2023-05-27T08:12:58;9.77;;;6.30;;
40204;SDS011;26963;42.666;23.366;2023-05-27T08:15:23;10.57;;;6.75;;
40204;SDS011;26963;42.666;23.366;2023-05-27T08:17:49;11.75;;;7.22;;
40204;SDS011;26963;42.666;23.366;2023-05-27T08:20:14;11.88;;;6.88;;
40204;SDS011;26963;42.666;23.366;2023-05-27T08:22:41;10.68;;;6.47;;
40204;SDS011;26963;42.666;23.366;2023-05-27T08:25:06;10.02;;;6.55;;
40204;SDS011;26963;42.666;23.366;2023-05-27T08:27:42;9.07;;;6.35;;
40204;SDS011;26963;42.666;23.366;2023-05-27T08:30:10;9.85;;;6.38;;
40204;SDS011;26963;42.666;23.366;2023-05-27T08:32:37;9.05;;;5.72;;
40204;SDS011;26963;42.666;23.366;2023-05-27T08:35:06;8.90;;;5.93;;
40204;SDS011;26963;42.666;23.366;2023-05-27T08:37:32;10.02;;;6.30;;
40204;SDS011;26963;42.666;23.366;2023-05-27T08:39:58;9.07;;;6.45;;
40204;SDS011;26963;42.666;23.366;2023-05-27T08:42:26;7.40;;;5.60;;
40204;SDS011;26963;42.666;23.366;2023-05-27T08:44:52;14.13;;;8.90;;
40204;SDS011;26963;42.666;23.366;2023-05-27T08:47:18;13.98;;;8.40;;
40204;SDS011;26963;42.666;23.366;2023-05-27T08:49:44;13.57;;;6.85;;
40204;SDS011;26963;42.666;23.366;2023-05-27T08:52:10;13.07;;;10.70;;
40204;SDS011;26963;42.666;23.366;2023-05-27T08:54:39;8.85;;;6.25;;
40204;SDS011;26963;42.666;23.366;2023-05-27T08:57:06;7.65;;;6.38;;
40204;SDS011;26963;42.666;23.366;2023-05-27T08:59:34;7.57;;;6.25;;
40204;SDS011;26963;42.666;23.366;2023-05-27T09:02:01;8.32;;;4.95;;
40204;SDS011;26963;42.666;23.366;2023-05-27T09:04:30;8.88;;;5.47;;
40204;SDS011;26963;42.666;23.366;2023-05-27T09:06:56;7.70;;;5.00;;
40204;SDS011;26963;42.666;23.366;2023-05-27T09:09:21;8.20;;;5.07;;
40204;SDS011;26963;42.666;23.366;2023-05-27T09:11:47;8.93;;;5.78;;
40204;SDS011;26963;42.666;23.366;2023-05-27T09:14:20;9.85;;;6.40;;
40204;SDS011;26963;42.666;23.366;2023-05-27T09:16:46;6.93;;;5.10;;
40204;SDS011;26963;42.666;23.366;2023-05-27T09:19:18;6.43;;;5.20;;
40204;SDS011;26963;42.666;23.366;2023-05-27T09:21:44;7.90;;;5.35;;
40204;SDS011;26963;42.666;23.366;2023-05-27T09:24:10;8.98;;;4.85;;
40204;SDS011;26963;42.666;23.366;2023-05-27T09:26:42;9.38;;;6.13;;
40204;SDS011;26963;42.666;23.366;2023-05-27T09:29:11;9.10;;;6.03;;
40204;SDS011;26963;42.666;23.366;2023-05-27T09:31:40;8.82;;;7.65;;
40204;SDS011;26963;42.666;23.366;2023-05-27T09:34:12;14.00;;;11.23;;
40204;SDS011;26963;42.666;23.366;2023-05-27T09:36:43;16.77;;;12.18;;
40204;SDS011;26963;42.666;23.366;2023-05-27T09:39:10;11.45;;;9.38;;
40204;SDS011;26963;42.666;23.366;2023-05-27T09:41:37;9.23;;;6.22;;
40204;SDS011;26963;42.666;23.366;2023-05-27T09:44:07;6.35;;;5.38;;
40204;SDS011;26963;42.666;23.366;2023-05-27T09:46:33;9.65;;;6.05;;
40204;SDS011;26963;42.666;23.366;2023-05-27T09:48:59;7.88;;;5.20;;
40204;SDS011;26963;42.666;23.366;2023-05-27T09:51:26;8.63;;;4.90;;
40204;SDS011;26963;42.666;23.366;2023-05-27T09:53:55;7.63;;;5.32;;
40204;SDS011;26963;42.666;23.366;2023-05-27T09:56:26;7.95;;;5.60;;
40204;SDS011;26963;42.666;23.366;2023-05-27T09:58:56;7.10;;;5.00;;
40204;SDS011;26963;42.666;23.366;2023-05-27T10:01:26;6.70;;;5.57;;
40204;SDS011;26963;42.666;23.366;2023-05-27T10:03:56;11.98;;;5.30;;
40204;SDS011;26963;42.666;23.366;2023-05-27T10:06:21;6.10;;;5.28;;
40204;SDS011;26963;42.666;23.366;2023-05-27T10:08:51;9.40;;;6.40;;
40204;SDS011;26963;42.666;23.366;2023-05-27T10:11:20;6.97;;;5.97;;
40204;SDS011;26963;42.666;23.366;2023-05-27T10:13:47;7.55;;;5.35;;
40204;SDS011;26963;42.666;23.366;2023-05-27T10:16:21;8.10;;;5.38;;
40204;SDS011;26963;42.666;23.366;2023-05-27T10:18:47;7.57;;;5.20;;
40204;SDS011;26963;42.666;23.366;2023-05-27T10:21:21;7.63;;;5.55;;
40204;SDS011;26963;42.666;23.366;2023-05-27T10:23:59;7.72;;;6.38;;
40204;SDS011;26963;42.666;23.366;2023-05-27T10:26:36;11.27;;;9.52;;
40204;SDS011;26963;42.666;23.366;2023-05-27T10:29:07;12.88;;;10.85;;
40204;SDS011;26963;42.666;23.366;2023-05-27T10:31:34;11.70;;;10.45;;
40204;SDS011;26963;42.666;23.366;2023-05-27T10:34:03;9.85;;;7.45;;
40204;SDS011;26963;42.666;23.366;2023-05-27T10:36:31;9.50;;;5.88;;
40204;SDS011;26963;42.666;23.366;2023-05-27T10:41:24;8.00;;;6.50;;
40204;SDS011;26963;42.666;23.366;2023-05-27T10:43:57;6.53;;;5.35;;
40204;SDS011;26963;42.666;23.366;2023-05-27T10:46:23;6.72;;;5.03;;
40204;SDS011;26963;42.666;23.366;2023-05-27T10:48:50;12.80;;;5.65;;
40204;SDS011;26963;42.666;23.366;2023-05-27T10:51:15;7.47;;;5.05;;
40204;SDS011;26963;42.666;23.366;2023-05-27T10:53:41;6.60;;;5.47;;
40204;SDS011;26963;42.666;23.366;2023-05-27T10:56:07;6.75;;;5.47;;
40204;SDS011;26963;42.666;23.366;2023-05-27T10:58:36;8.30;;;4.88;;
40204;SDS011;26963;42.666;23.366;2023-05-27T11:01:09;7.30;;;5.57;;
40204;SDS011;26963;42.666;23.366;2023-05-27T11:03:41;7.45;;;5.28;;
40204;SDS011;26963;42.666;23.366;2023-05-27T11:06:08;8.35;;;4.97;;
40204;SDS011;26963;42.666;23.366;2023-05-27T11:08:35;6.35;;;5.55;;
40204;SDS011;26963;42.666;23.366;2023-05-27T11:11:09;7.18;;;4.68;;
40204;SDS011;26963;42.666;23.366;2023-05-27T11:13:40;9.07;;;5.80;;
40204;SDS011;26963;42.666;23.366;2023-05-27T11:16:09;9.48;;;6.30;;
40204;SDS011;26963;42.666;23.366;2023-05-27T11:18:36;8.38;;;6.35;;
40204;SDS011;26963;42.666;23.366;2023-05-27T11:21:03;7.03;;;5.25;;
40204;SDS011;26963;42.666;23.366;2023-05-27T11:23:36;9.23;;;5.78;;
40204;SDS011;26963;42.666;23.366;2023-05-27T11:26:03;7.78;;;5.40;;
40204;SDS011;26963;42.666;23.366;2023-05-27T11:28:28;6.38;;;4.90;;
40204;SDS011;26963;42.666;23.366;2023-05-27T11:30:58;8.65;;;5.63;;
40204;SDS011;26963;42.666;23.366;2023-05-27T11:33:31;8.20;;;5.60;;
40204;SDS011;26963;42.666;23.366;2023-05-27T11:36:07;7.32;;;5.32;;
40204;SDS011;26963;42.666;23.366;2023-05-27T11:41:36;7.97;;;5.75;;
40204;SDS011;26963;42.666;23.366;2023-05-27T11:44:06;9.93;;;6.93;;
40204;SDS011;26963;42.666;23.366;2023-05-27T11:46:39;9.05;;;8.15;;
40204;SDS011;26963;42.666;23.366;2023-05-27T11:49:07;9.10;;;5.95;;
40204;SDS011;26963;42.666;23.366;2023-05-27T11:51:37;8.32;;;6.18;;
40204;SDS011;26963;42.666;23.366;2023-05-27T11:54:03;8.68;;;6.45;;
40204;SDS011;26963;42.666;23.366;2023-05-27T11:56:29;7.28;;;6.20;;
40204;SDS011;26963;42.666;23.366;2023-05-27T11:58:55;7.85;;;5.28;;
40204;SDS011;26963;42.666;23.366;2023-05-27T12:01:21;6.75;;;5.63;;
40204;SDS011;26963;42.666;23.366;2023-05-27T12:03:47;8.75;;;6.35;;
40204;SDS011;26963;42.666;23.366;2023-05-27T12:06:13;10.20;;;5.90;;
40204;SDS011;26963;42.666;23.366;2023-05-27T12:08:40;7.40;;;6.10;;
40204;SDS011;26963;42.666;23.366;2023-05-27T12:11:06;16.20;;;12.65;;
40204;SDS011;26963;42.666;23.366;2023-05-27T12:13:32;9.00;;;6.65;;
40204;SDS011;26963;42.666;23.366;2023-05-27T12:15:57;12.05;;;8.10;;
40204;SDS011;26963;42.666;23.366;2023-05-27T12:18:24;7.90;;;6.22;;
40204;SDS011;26963;42.666;23.366;2023-05-27T12:20:49;7.72;;;6.40;;
40204;SDS011;26963;42.666;23.366;2023-05-27T12:23:16;7.43;;;5.60;;
40204;SDS011;26963;42.666;23.366;2023-05-27T12:25:41;7.10;;;6.20;;
40204;SDS011;26963;42.666;23.366;2023-05-27T12:28:07;11.70;;;9.27;;
40204;SDS011;26963;42.666;23.366;2023-05-27T12:30:34;8.40;;;6.53;;
40204;SDS011;26963;42.666;23.366;2023-05-27T12:33:01;17.15;;;12.63;;
40204;SDS011;26963;42.666;23.366;2023-05-27T12:35:26;11.40;;;8.30;;
40204;SDS011;26963;42.666;23.366;2023-05-27T12:37:52;9.82;;;7.10;;
40204;SDS011;26963;42.666;23.366;2023-05-27T12:40:18;10.65;;;7.35;;
40204;SDS011;26963;42.666;23.366;2023-05-27T12:42:44;8.43;;;6.63;;
40204;SDS011;26963;42.666;23.366;2023-05-27T12:45:10;6.72;;;4.68;;
40204;SDS011;26963;42.666;23.366;2023-05-27T12:47:36;7.82;;;5.65;;
40204;SDS011;26963;42.666;23.366;2023-05-27T12:50:02;6.63;;;4.63;;
40204;SDS011;26963;42.666;23.366;2023-05-27T12:52:29;6.68;;;4.90;;
40204;SDS011;26963;42.666;23.366;2023-05-27T12:54:55;8.02;;;5.35;;
40204;SDS011;26963;42.666;23.366;2023-05-27T12:57:22;7.13;;;5.20;;
40204;SDS011;26963;42.666;23.366;2023-05-27T12:59:47;6.85;;;4.60;;
40204;SDS011;26963;42.666;23.366;2023-05-27T13:02:13;7.35;;;5.50;;
40204;SDS011;26963;42.666;23.366;2023-05-27T13:04:39;8.32;;;6.15;;
40204;SDS011;26963;42.666;23.366;2023-05-27T13:07:05;14.02;;;6.80;;
40204;SDS011;26963;42.666;23.366;2023-05-27T13:09:30;4.90;;;4.40;;
40204;SDS011;26963;42.666;23.366;2023-05-27T13:11:56;8.40;;;6.28;;
40204;SDS011;26963;42.666;23.366;2023-05-27T13:14:22;8.30;;;5.18;;
40204;SDS011;26963;42.666;23.366;2023-05-27T13:16:48;7.20;;;5.13;;
40204;SDS011;26963;42.666;23.366;2023-05-27T13:19:14;5.53;;;4.60;;
40204;SDS011;26963;42.666;23.366;2023-05-27T13:21:40;5.90;;;5.20;;
40204;SDS011;26963;42.666;23.366;2023-05-27T13:24:05;7.22;;;4.30;;
40204;SDS011;26963;42.666;23.366;2023-05-27T13:26:31;6.07;;;5.10;;
40204;SDS011;26963;42.666;23.366;2023-05-27T13:28:58;7.65;;;5.00;;
40204;SDS011;26963;42.666;23.366;2023-05-27T13:31:24;13.20;;;5.35;;
40204;SDS011;26963;42.666;23.366;2023-05-27T13:33:49;9.90;;;5.03;;
40204;SDS011;26963;42.666;23.366;2023-05-27T13:36:15;6.43;;;5.18;;
40204;SDS011;26963;42.666;23.366;2023-05-27T13:38:41;5.95;;;4.75;;
40204;SDS011;26963;42.666;23.366;2023-05-27T13:41:07;7.43;;;4.88;;
40204;SDS011;26963;42.666;23.366;2023-05-27T13:43:33;6.20;;;4.35;;
40204;SDS011;26963;42.666;23.366;2023-05-27T13:45:58;7.45;;;5.50;;
40204;SDS011;26963;42.666;23.366;2023-05-27T13:48:24;9.27;;;5.28;;
40204;SDS011;26963;42.666;23.366;2023-05-27T13:50:49;12.30;;;11.00;;
40204;SDS011;26963;42.666;23.366;2023-05-27T13:53:15;9.60;;;7.95;;
40204;SDS011;26963;42.666;23.366;2023-05-27T13:55:40;14.80;;;9.15;;
40204;SDS011;26963;42.666;23.366;2023-05-27T13:58:08;12.30;;;10.45;;
40204;SDS011;26963;42.666;23.366;2023-05-27T14:00:33;17.73;;;13.77;;
40204;SDS011;26963;42.666;23.366;2023-05-27T14:02:59;8.23;;;7.28;;
40204;SDS011;26963;42.666;23.366;2023-05-27T14:05:24;6.95;;;5.60;;
40204;SDS011;26963;42.666;23.366;2023-05-27T14:07:51;8.25;;;4.70;;
40204;SDS011;26963;42.666;23.366;2023-05-27T14:10:17;9.02;;;5.53;;
40204;SDS011;26963;42.666;23.366;2023-05-27T14:12:43;12.20;;;8.20;;
40204;SDS011;26963;42.666;23.366;2023-05-27T14:15:08;8.68;;;7.30;;
40204;SDS011;26963;42.666;23.366;2023-05-27T14:17:34;10.15;;;6.95;;
40204;SDS011;26963;42.666;23.366;2023-05-27T14:20:01;8.07;;;6.00;;
40204;SDS011;26963;42.666;23.366;2023-05-27T14:22:27;18.67;;;12.88;;
40204;SDS011;26963;42.666;23.366;2023-05-27T14:24:52;8.63;;;7.07;;
40204;SDS011;26963;42.666;23.366;2023-05-27T14:27:18;9.95;;;7.40;;
40204;SDS011;26963;42.666;23.366;2023-05-27T14:29:43;8.63;;;6.65;;
40204;SDS011;26963;42.666;23.366;2023-05-27T14:32:11;8.50;;;7.03;;
40204;SDS011;26963;42.666;23.366;2023-05-27T14:34:37;8.93;;;6.35;;
40204;SDS011;26963;42.666;23.366;2023-05-27T14:37:02;5.82;;;5.18;;
40204;SDS011;26963;42.666;23.366;2023-05-27T14:39:28;6.15;;;4.70;;
40204;SDS011;26963;42.666;23.366;2023-05-27T14:41:53;7.40;;;4.78;;
40204;SDS011;26963;42.666;23.366;2023-05-27T14:44:20;11.32;;;5.75;;